Time;durP1;ratioP1;P1;durP2;ratioP2;P2;SDS_P1;SDS_P2;PMS_P1;PMS_P2;Temp;Humidity;BMP_temperature;BMP_pressure;BME280_temperature;BME280_humidity;BME280_pressure;Samples;Min_cycle;Max_cycle;Signal;HPM_P1;HPM_P2
2023/03/12 00:01:53;;;;;;;0.40;0.40;;;0.00;99.90;;;;;;5073057;28;20485;-80
2023/03/12 00:04:20;;;;;;;0.50;0.40;;;0.00;99.90;;;;;;5072878;28;20477;-80
2023/03/12 00:06:47;;;;;;;0.40;0.40;;;0.00;99.90;;;;;;5073074;28;20416;-80
2023/03/12 00:09:13;;;;;;;0.30;0.30;;;0.00;99.90;;;;;;5072788;28;20465;-80
2023/03/12 00:11:40;;;;;;;0.30;0.20;;;0.00;99.90;;;;;;5073100;28;20449;-80
2023/03/12 00:14:07;;;;;;;0.30;0.30;;;0.00;99.90;;;;;;5072735;28;20449;-80
2023/03/12 00:16:33;;;;;;;0.30;0.30;;;0.00;99.90;;;;;;5072792;28;20411;-80
2023/03/12 00:19:01;;;;;;;1.47;0.80;;;0.00;99.90;;;;;;5072908;28;20465;-80
2023/03/12 00:21:28;;;;;;;0.40;0.40;;;-0.10;99.90;;;;;;5072863;28;20457;-80
2023/03/12 00:23:55;;;;;;;0.30;0.30;;;-0.10;99.90;;;;;;5072911;28;20458;-80
2023/03/12 00:26:22;;;;;;;0.30;0.30;;;-0.10;99.90;;;;;;5072634;28;20453;-80
2023/03/12 00:28:49;;;;;;;0.30;0.30;;;-0.10;99.90;;;;;;5072531;28;20866;-80
2023/03/12 00:31:19;;;;;;;0.30;0.30;;;-0.10;99.90;;;;;;5072849;28;20452;-80
2023/03/12 00:33:48;;;;;;;2.40;0.90;;;-0.10;99.90;;;;;;5072501;28;20442;-80
2023/03/12 00:36:16;;;;;;;0.30;0.30;;;-0.10;99.90;;;;;;5072809;28;20488;-80
2023/03/12 00:38:43;;;;;;;0.50;0.40;;;-0.10;99.90;;;;;;5074750;28;20480;-80
2023/03/12 00:41:10;;;;;;;0.30;0.20;;;-0.10;99.90;;;;;;5076229;28;20955;-80
2023/03/12 00:43:37;;;;;;;0.40;0.40;;;0.00;99.90;;;;;;5076375;28;20488;-80
2023/03/12 00:46:04;;;;;;;0.63;0.63;;;0.00;99.90;;;;;;5075912;28;21024;-80
2023/03/12 00:48:30;;;;;;;0.30;0.30;;;-0.10;99.90;;;;;;5076342;28;20451;-80
2023/03/12 00:50:57;;;;;;;0.30;0.30;;;-0.10;99.90;;;;;;5076387;28;20446;-80
2023/03/12 00:53:26;;;;;;;0.30;0.30;;;-0.10;99.90;;;;;;5076343;28;20453;-80
2023/03/12 00:55:52;;;;;;;0.50;0.50;;;-0.20;99.90;;;;;;5076960;28;20810;-80
2023/03/12 00:58:19;;;;;;;0.67;0.40;;;-0.20;99.90;;;;;;5076224;28;20476;-80
2023/03/12 01:00:46;;;;;;;0.60;0.40;;;-0.20;99.90;;;;;;5076160;28;20457;-80
2023/03/12 01:03:13;;;;;;;0.40;0.37;;;-0.20;99.90;;;;;;5076092;28;20481;-80
2023/03/12 01:05:39;;;;;;;0.30;0.20;;;-0.10;99.90;;;;;;5076117;28;20819;-80
2023/03/12 01:08:07;;;;;;;0.87;0.70;;;-0.10;99.90;;;;;;5075975;28;20470;-80
2023/03/12 01:10:36;;;;;;;1.33;1.23;;;0.00;99.90;;;;;;5076037;28;20453;-80
2023/03/12 01:13:03;;;;;;;0.40;0.30;;;0.10;99.90;;;;;;5075686;28;20937;-80
2023/03/12 01:15:30;;;;;;;0.30;0.20;;;0.20;99.90;;;;;;5075592;28;20830;-80
2023/03/12 01:17:57;;;;;;;0.30;0.30;;;0.20;99.90;;;;;;5075484;28;21007;-80
2023/03/12 01:20:24;;;;;;;0.50;0.47;;;0.30;99.90;;;;;;5075793;28;20454;-80
2023/03/12 01:22:51;;;;;;;0.40;0.40;;;0.40;99.90;;;;;;5075395;28;20480;-80
2023/03/12 01:25:18;;;;;;;1.37;0.50;;;0.50;99.90;;;;;;5075700;28;20450;-80
2023/03/12 01:27:46;;;;;;;0.63;0.63;;;0.50;99.90;;;;;;5075636;28;20469;-80
2023/03/12 01:30:14;;;;;;;0.30;0.20;;;0.60;99.90;;;;;;5075655;28;20450;-80
2023/03/12 01:32:41;;;;;;;0.40;0.40;;;0.70;99.90;;;;;;5075291;28;20843;-80
2023/03/12 01:35:08;;;;;;;0.30;0.30;;;0.70;99.90;;;;;;5075305;28;20945;-80
2023/03/12 01:37:35;;;;;;;0.53;0.53;;;0.70;99.90;;;;;;5075467;28;20445;-80
2023/03/12 01:40:02;;;;;;;0.30;0.30;;;0.70;99.90;;;;;;5075503;28;20450;-80
2023/03/12 01:42:29;;;;;;;0.30;0.20;;;0.80;99.90;;;;;;5075345;28;20477;-80
2023/03/12 01:44:58;;;;;;;0.40;0.40;;;0.90;99.90;;;;;;5075163;28;20454;-80
2023/03/12 01:47:26;;;;;;;0.40;0.40;;;0.90;99.90;;;;;;5075331;28;20441;-80
2023/03/12 01:49:55;;;;;;;0.50;0.50;;;0.90;99.90;;;;;;5075524;28;20424;-80
2023/03/12 01:52:24;;;;;;;0.80;0.40;;;0.90;99.90;;;;;;5075240;28;20456;-80
2023/03/12 01:54:57;;;;;;;0.30;0.30;;;1.00;99.90;;;;;;5074934;28;20438;-80
2023/03/12 01:57:26;;;;;;;0.50;0.50;;;1.00;99.90;;;;;;5075179;28;20434;-80
2023/03/12 01:59:57;;;;;;;0.37;0.30;;;1.00;99.90;;;;;;5074850;28;20963;-80
2023/03/12 02:02:28;;;;;;;0.80;0.50;;;1.10;99.90;;;;;;5075035;28;20500;-80
2023/03/12 02:05:04;;;;;;;0.47;0.37;;;1.10;99.90;;;;;;5074792;28;20434;-80
2023/03/12 02:07:32;;;;;;;0.40;0.40;;;1.20;99.90;;;;;;5074934;28;20440;-81
2023/03/12 02:09:59;;;;;;;0.30;0.30;;;1.10;99.90;;;;;;5074618;28;20450;-80
2023/03/12 02:12:26;;;;;;;0.70;0.70;;;1.10;99.90;;;;;;5074857;28;20441;-80
2023/03/12 02:14:53;;;;;;;0.30;0.30;;;1.10;99.90;;;;;;5074847;28;20441;-80
2023/03/12 02:17:20;;;;;;;0.40;0.40;;;1.10;99.90;;;;;;5074709;28;20449;-80
2023/03/12 02:19:59;;;;;;;1.80;0.90;;;1.10;99.90;;;;;;5074684;28;20460;-80
2023/03/12 02:22:27;;;;;;;1.63;0.50;;;1.00;99.90;;;;;;5074627;28;20466;-80
2023/03/12 02:25:02;;;;;;;0.40;0.30;;;1.00;99.90;;;;;;5074613;28;20453;-80
2023/03/12 02:27:32;;;;;;;0.40;0.40;;;1.00;99.90;;;;;;5074213;28;20941;-80
2023/03/12 02:30:00;;;;;;;0.40;0.30;;;1.00;99.90;;;;;;5074520;28;20491;-80
2023/03/12 02:32:32;;;;;;;0.97;0.87;;;1.00;99.90;;;;;;5074433;28;20464;-80
2023/03/12 02:35:00;;;;;;;0.77;0.40;;;1.10;99.90;;;;;;5074438;28;20430;-80
2023/03/12 02:37:27;;;;;;;0.30;0.30;;;1.10;99.90;;;;;;5074260;28;20456;-80
2023/03/12 02:39:59;;;;;;;0.47;0.47;;;1.20;99.90;;;;;;5074320;28;20449;-80
2023/03/12 02:42:26;;;;;;;0.50;0.50;;;1.20;99.90;;;;;;5074149;28;20884;-80
2023/03/12 02:44:54;;;;;;;0.30;0.30;;;1.30;99.90;;;;;;5073980;28;20452;-80
2023/03/12 02:47:21;;;;;;;0.30;0.30;;;1.30;99.90;;;;;;5074191;28;20415;-80
2023/03/12 02:49:48;;;;;;;0.30;0.20;;;1.40;99.90;;;;;;5074102;28;20454;-80
2023/03/12 02:52:15;;;;;;;0.50;0.50;;;1.40;99.90;;;;;;5074064;28;20452;-80
2023/03/12 02:54:42;;;;;;;0.30;0.30;;;1.40;99.90;;;;;;5073784;28;20461;-80
2023/03/12 02:57:09;;;;;;;0.60;0.60;;;1.50;99.90;;;;;;5073661;28;20420;-80
2023/03/12 02:59:36;;;;;;;4.23;0.63;;;1.50;99.90;;;;;;5073898;28;20457;-80
2023/03/12 03:02:05;;;;;;;0.30;0.30;;;1.50;99.90;;;;;;5073178;28;20461;-80
2023/03/12 03:04:34;;;;;;;0.77;0.40;;;1.60;99.90;;;;;;5073872;28;20536;-80
2023/03/12 03:07:00;;;;;;;1.37;1.27;;;1.60;99.90;;;;;;5074118;28;20449;-80
2023/03/12 03:09:27;;;;;;;0.40;0.40;;;1.60;99.90;;;;;;5073885;28;20472;-80
2023/03/12 03:11:54;;;;;;;0.30;0.30;;;1.70;99.90;;;;;;5073851;28;20468;-80
2023/03/12 03:14:22;;;;;;;0.40;0.37;;;1.60;99.90;;;;;;5073748;28;20453;-80
2023/03/12 03:16:49;;;;;;;0.33;0.30;;;1.60;99.90;;;;;;5073634;28;20506;-80
2023/03/12 03:19:17;;;;;;;0.30;0.30;;;1.70;99.90;;;;;;5073586;28;20477;-80
2023/03/12 03:21:44;;;;;;;0.60;0.40;;;1.70;99.90;;;;;;5073578;28;20458;-80
2023/03/12 03:24:11;;;;;;;0.30;0.30;;;1.70;99.90;;;;;;5073498;28;20485;-80
2023/03/12 03:26:38;;;;;;;0.30;0.30;;;1.80;99.90;;;;;;5073570;28;20449;-80
2023/03/12 03:29:05;;;;;;;0.53;0.53;;;1.80;99.90;;;;;;5073491;28;20465;-80
2023/03/12 03:31:32;;;;;;;0.40;0.40;;;1.70;99.90;;;;;;5073517;28;20445;-80
2023/03/12 03:33:58;;;;;;;0.60;0.30;;;1.70;99.90;;;;;;5073355;28;20823;-80
2023/03/12 03:36:26;;;;;;;1.10;0.80;;;1.70;99.90;;;;;;5073483;28;20445;-80
2023/03/12 03:38:53;;;;;;;0.40;0.33;;;1.70;99.90;;;;;;5073384;28;20466;-80
2023/03/12 03:41:21;;;;;;;0.30;0.30;;;1.70;99.90;;;;;;5073446;28;20901;-80
2023/03/12 03:43:49;;;;;;;0.80;0.37;;;1.70;99.90;;;;;;5072978;28;20481;-80
2023/03/12 03:46:16;;;;;;;0.40;0.40;;;1.70;99.90;;;;;;5073185;28;20477;-80
2023/03/12 03:48:42;;;;;;;1.13;1.03;;;1.70;99.90;;;;;;5073233;28;20473;-80
2023/03/12 03:51:10;;;;;;;0.40;0.40;;;1.80;99.90;;;;;;5073298;28;20454;-80
2023/03/12 03:53:38;;;;;;;0.30;0.30;;;1.80;99.90;;;;;;5073015;28;20444;-80
2023/03/12 03:56:06;;;;;;;0.30;0.30;;;1.90;99.90;;;;;;5072966;28;20457;-80
2023/03/12 03:58:33;;;;;;;0.30;0.30;;;1.90;99.90;;;;;;5073222;28;20493;-80
2023/03/12 04:01:00;;;;;;;0.50;0.50;;;2.00;99.90;;;;;;5073223;28;20449;-80
2023/03/12 04:03:27;;;;;;;0.40;0.30;;;2.00;99.90;;;;;;5072805;28;21024;-80
2023/03/12 04:05:55;;;;;;;0.30;0.30;;;2.00;99.90;;;;;;5073177;28;20449;-80
2023/03/12 04:08:22;;;;;;;0.57;0.57;;;2.00;99.90;;;;;;5073052;28;20473;-81
2023/03/12 04:10:50;;;;;;;0.40;0.40;;;2.00;99.90;;;;;;5073169;28;20452;-80
2023/03/12 04:13:17;;;;;;;0.30;0.30;;;2.10;99.90;;;;;;5076274;28;20452;-80
2023/03/12 04:15:47;;;;;;;0.30;0.20;;;2.00;99.90;;;;;;5076802;28;20792;-81
2023/03/12 04:18:14;;;;;;;0.70;0.70;;;2.00;99.90;;;;;;5077027;28;20476;-81
2023/03/12 04:20:40;;;;;;;0.50;0.50;;;2.00;99.90;;;;;;5077021;28;20453;-80
2023/03/12 04:23:07;;;;;;;0.37;0.37;;;2.00;99.90;;;;;;5076576;28;21008;-80
2023/03/12 04:25:34;;;;;;;0.60;0.60;;;2.10;99.90;;;;;;5076674;28;20438;-80
2023/03/12 04:28:02;;;;;;;0.50;0.43;;;2.10;99.90;;;;;;5076485;28;21002;-80
2023/03/12 04:30:29;;;;;;;0.30;0.20;;;2.10;99.90;;;;;;5076806;28;20453;-81
2023/03/12 04:32:55;;;;;;;0.40;0.40;;;2.00;99.90;;;;;;5076471;28;20824;-81
2023/03/12 04:35:23;;;;;;;0.30;0.30;;;2.10;99.90;;;;;;5076736;28;20445;-80
2023/03/12 04:37:50;;;;;;;0.40;0.30;;;2.10;99.90;;;;;;5076585;28;20473;-81
2023/03/12 04:40:18;;;;;;;1.07;0.60;;;2.10;99.90;;;;;;5076626;28;20453;-80
2023/03/12 04:42:46;;;;;;;0.93;0.77;;;2.10;99.90;;;;;;5076475;28;20449;-81
2023/03/12 04:45:14;;;;;;;0.70;0.57;;;2.20;99.90;;;;;;5076279;28;20477;-80
2023/03/12 04:47:43;;;;;;;0.30;0.30;;;2.20;99.90;;;;;;5076458;28;20468;-81
2023/03/12 04:50:12;;;;;;;0.30;0.30;;;2.20;99.90;;;;;;5076423;28;20441;-81
2023/03/12 04:52:39;;;;;;;0.30;0.30;;;2.30;99.90;;;;;;5076387;28;20449;-81
2023/03/12 04:55:07;;;;;;;0.87;0.60;;;2.30;99.90;;;;;;5076371;28;20448;-81
2023/03/12 04:57:33;;;;;;;0.63;0.30;;;2.30;99.90;;;;;;5076266;28;20470;-81
2023/03/12 05:00:00;;;;;;;0.40;0.30;;;2.40;99.90;;;;;;5076275;28;20446;-81
2023/03/12 05:02:28;;;;;;;0.30;0.30;;;2.40;99.90;;;;;;5076253;28;20457;-81
2023/03/12 05:04:56;;;;;;;0.50;0.50;;;2.40;99.90;;;;;;5076147;28;20481;-81
2023/03/12 05:07:23;;;;;;;0.77;0.53;;;2.50;99.90;;;;;;5076110;28;20488;-81
2023/03/12 05:09:50;;;;;;;0.40;0.30;;;2.50;99.90;;;;;;5075832;28;20437;-80
2023/03/12 05:12:17;;;;;;;0.57;0.57;;;2.50;99.90;;;;;;5076082;28;20445;-81
2023/03/12 05:14:43;;;;;;;0.50;0.50;;;2.60;99.90;;;;;;5075723;28;20855;-80
2023/03/12 05:17:10;;;;;;;0.67;0.43;;;2.60;99.90;;;;;;5075977;28;20446;-81
2023/03/12 05:19:38;;;;;;;0.30;0.30;;;2.60;99.90;;;;;;5075905;28;20465;-81
2023/03/12 05:22:05;;;;;;;0.30;0.30;;;2.70;99.90;;;;;;5075919;28;20454;-81
2023/03/12 05:24:32;;;;;;;1.10;1.10;;;2.70;99.90;;;;;;5075109;28;20477;-81
2023/03/12 05:26:59;;;;;;;0.47;0.47;;;2.70;99.90;;;;;;5075611;28;20441;-81
2023/03/12 05:29:25;;;;;;;0.70;0.50;;;2.70;99.90;;;;;;5075729;28;20458;-81
2023/03/12 05:31:52;;;;;;;0.50;0.50;;;2.70;99.90;;;;;;5075329;28;20812;-80
2023/03/12 05:34:19;;;;;;;0.40;0.40;;;2.70;99.90;;;;;;5075343;28;20948;-81
2023/03/12 05:36:47;;;;;;;0.40;0.40;;;2.70;99.90;;;;;;5075624;28;20450;-81
2023/03/12 05:39:14;;;;;;;0.40;0.40;;;2.70;99.90;;;;;;5075245;28;20461;-81
2023/03/12 05:41:40;;;;;;;0.40;0.40;;;2.70;99.90;;;;;;5075541;28;20453;-81
2023/03/12 05:44:09;;;;;;;0.60;0.60;;;2.80;99.90;;;;;;5075427;28;20858;-81
2023/03/12 05:46:36;;;;;;;0.80;0.50;;;2.80;99.90;;;;;;5075053;28;20481;-81
2023/03/12 05:49:03;;;;;;;0.50;0.30;;;2.80;99.90;;;;;;5075374;28;20469;-81
2023/03/12 05:51:29;;;;;;;1.43;1.43;;;2.80;99.90;;;;;;5075050;28;20461;-81
2023/03/12 05:53:58;;;;;;;0.30;0.30;;;2.80;99.90;;;;;;5075072;28;20442;-81
2023/03/12 05:56:25;;;;;;;0.60;0.60;;;2.80;99.90;;;;;;5074960;28;20449;-81
2023/03/12 05:58:51;;;;;;;0.40;0.30;;;2.80;99.90;;;;;;5074861;28;20943;-81
2023/03/12 06:01:21;;;;;;;0.90;0.40;;;2.80;99.90;;;;;;5074879;28;20446;-81
2023/03/12 06:03:48;;;;;;;0.37;0.30;;;2.70;99.90;;;;;;5075035;28;20489;-81
2023/03/12 06:06:15;;;;;;;0.50;0.40;;;2.70;99.90;;;;;;5075042;28;20458;-81
2023/03/12 06:08:43;;;;;;;1.80;0.60;;;2.70;99.90;;;;;;5074883;28;20465;-81
2023/03/12 06:11:12;;;;;;;6.43;1.17;;;2.70;99.90;;;;;;5074923;28;20447;-81
2023/03/12 06:13:38;;;;;;;0.30;0.30;;;2.70;99.90;;;;;;5074577;28;20485;-81
2023/03/12 06:16:07;;;;;;;0.40;0.40;;;2.70;99.90;;;;;;5074521;28;20544;-81
2023/03/12 06:18:35;;;;;;;0.67;0.40;;;2.70;99.90;;;;;;5074763;28;20492;-81
2023/03/12 06:21:10;;;;;;;0.30;0.27;;;2.70;99.90;;;;;;5074476;28;20963;-81
2023/03/12 06:23:37;;;;;;;0.40;0.40;;;2.70;99.90;;;;;;5074606;28;20485;-81
2023/03/12 06:26:04;;;;;;;0.37;0.37;;;2.70;99.90;;;;;;5074626;28;20450;-80
2023/03/12 06:28:32;;;;;;;0.50;0.43;;;2.70;99.90;;;;;;5074219;28;20469;-80
2023/03/12 06:30:59;;;;;;;0.37;0.33;;;2.80;99.90;;;;;;5074581;28;20448;-80
2023/03/12 06:33:26;;;;;;;1.13;0.30;;;2.80;99.90;;;;;;5074489;28;20457;-80
2023/03/12 06:35:54;;;;;;;0.30;0.30;;;2.80;99.90;;;;;;5073454;28;20460;-80
2023/03/12 06:38:21;;;;;;;0.80;0.80;;;2.70;99.90;;;;;;5074016;28;20454;-79
2023/03/12 06:40:55;;;;;;;0.30;0.30;;;2.80;99.90;;;;;;5074337;28;20454;-79
2023/03/12 06:43:22;;;;;;;0.43;0.43;;;2.70;99.90;;;;;;5074265;28;20462;-80
2023/03/12 06:45:50;;;;;;;0.53;0.40;;;2.70;99.90;;;;;;5073909;28;20477;-80
2023/03/12 06:48:17;;;;;;;1.70;0.47;;;2.60;99.90;;;;;;5073918;28;20454;-80
2023/03/12 06:50:43;;;;;;;0.40;0.30;;;2.50;99.90;;;;;;5074214;28;20437;-80
2023/03/12 06:53:10;;;;;;;0.43;0.43;;;2.50;99.90;;;;;;5074112;28;20481;-80
2023/03/12 06:55:37;;;;;;;0.33;0.30;;;2.50;99.90;;;;;;5074110;28;20437;-80
2023/03/12 06:58:04;;;;;;;1.57;0.80;;;2.50;99.90;;;;;;5073927;28;20469;-80
2023/03/12 07:00:32;;;;;;;4.93;0.70;;;2.50;99.90;;;;;;5073935;28;20456;-80
2023/03/12 07:03:00;;;;;;;0.33;0.30;;;2.60;99.90;;;;;;5073921;28;20462;-80
2023/03/12 07:05:27;;;;;;;0.47;0.47;;;2.60;99.90;;;;;;5073832;28;20481;-80
2023/03/12 07:07:54;;;;;;;0.30;0.30;;;2.60;99.90;;;;;;5073485;28;20826;-80
2023/03/12 07:10:21;;;;;;;0.40;0.30;;;2.70;99.90;;;;;;5073885;28;20441;-80
2023/03/12 07:12:48;;;;;;;0.57;0.57;;;2.70;99.90;;;;;;5073844;28;20457;-80
2023/03/12 07:15:15;;;;;;;0.60;0.60;;;2.70;99.90;;;;;;5073740;28;20441;-80
2023/03/12 07:17:42;;;;;;;0.40;0.40;;;2.70;99.90;;;;;;5073372;28;20470;-80
2023/03/12 07:20:11;;;;;;;0.40;0.30;;;2.70;99.90;;;;;;5073697;28;20452;-80
2023/03/12 07:22:38;;;;;;;0.30;0.30;;;2.80;99.90;;;;;;5073666;28;20457;-79
2023/03/12 07:25:06;;;;;;;0.73;0.60;;;2.80;99.90;;;;;;5073287;28;21004;-80
2023/03/12 07:27:33;;;;;;;11.77;0.70;;;2.90;99.90;;;;;;5073452;28;20453;-80
2023/03/12 07:29:59;;;;;;;0.47;0.40;;;2.90;99.90;;;;;;5073569;28;20465;-80
2023/03/12 07:32:26;;;;;;;0.40;0.40;;;2.90;99.90;;;;;;5073212;28;20456;-80
2023/03/12 07:34:53;;;;;;;0.30;0.30;;;3.00;99.90;;;;;;5073528;28;20445;-80
2023/03/12 07:37:21;;;;;;;0.60;0.43;;;3.00;99.90;;;;;;5073107;28;20449;-80
2023/03/12 07:39:51;;;;;;;0.50;0.50;;;3.10;99.90;;;;;;5073441;28;20445;-80
2023/03/12 07:42:17;;;;;;;7.70;0.70;;;3.10;99.90;;;;;;5073464;28;20446;-80
2023/03/12 07:44:44;;;;;;;0.70;0.33;;;3.30;99.90;;;;;;5073200;28;20477;-80
2023/03/12 07:47:11;;;;;;;0.40;0.40;;;3.50;99.90;;;;;;5073118;28;20440;-80
2023/03/12 07:49:40;;;;;;;0.43;0.43;;;3.70;99.90;;;;;;5073265;28;20481;-79
2023/03/12 07:52:08;;;;;;;0.40;0.30;;;3.90;99.90;;;;;;5073296;28;20549;-80
2023/03/12 07:54:37;;;;;;;0.87;0.73;;;3.90;99.90;;;;;;5073309;28;20468;-80
2023/03/12 07:57:05;;;;;;;0.63;0.63;;;4.10;99.90;;;;;;5073064;28;20445;-80
2023/03/12 07:59:32;;;;;;;0.30;0.30;;;4.20;99.90;;;;;;5073207;28;20560;-80
2023/03/12 08:01:59;;;;;;;0.50;0.40;;;4.40;99.90;;;;;;5073232;28;20450;-80
2023/03/12 08:04:25;;;;;;;1.33;0.60;;;4.60;99.90;;;;;;5073147;28;20481;-80
2023/03/12 08:06:52;;;;;;;1.27;0.80;;;4.80;99.90;;;;;;5072868;28;20932;-80
2023/03/12 08:09:19;;;;;;;1.27;0.73;;;5.10;99.90;;;;;;5073114;28;20465;-80
2023/03/12 08:11:47;;;;;;;0.70;0.60;;;5.60;99.90;;;;;;5073126;28;20449;-80
2023/03/12 08:14:14;;;;;;;3.33;0.77;;;5.90;99.90;;;;;;5073125;28;20449;-80
2023/03/12 08:16:40;;;;;;;0.53;0.53;;;6.00;99.90;;;;;;5073106;28;20446;-80
2023/03/12 08:19:07;;;;;;;0.50;0.50;;;6.10;99.90;;;;;;5072693;28;20988;-80
2023/03/12 08:21:34;;;;;;;0.70;0.53;;;6.10;99.90;;;;;;5073068;28;20449;-80
2023/03/12 08:24:00;;;;;;;0.90;0.50;;;6.10;99.90;;;;;;5072623;28;20968;-80
2023/03/12 08:26:27;;;;;;;1.07;0.60;;;6.20;99.90;;;;;;5073007;28;20449;-80
2023/03/12 08:28:55;;;;;;;0.50;0.50;;;6.20;99.90;;;;;;5072904;28;20469;-80
2023/03/12 08:31:22;;;;;;;0.40;0.37;;;6.20;99.90;;;;;;5072634;28;20445;-80
2023/03/12 08:33:49;;;;;;;2.00;1.50;;;6.20;99.90;;;;;;5072560;28;20971;-80
2023/03/12 08:36:15;;;;;;;1.17;1.03;;;6.30;99.90;;;;;;5072870;28;20445;-80
2023/03/12 08:38:42;;;;;;;0.50;0.50;;;6.30;99.90;;;;;;5072799;28;20466;-80
2023/03/12 08:41:09;;;;;;;4.83;0.93;;;6.30;99.90;;;;;;5072848;28;20472;-80
2023/03/12 08:43:36;;;;;;;1.10;1.00;;;6.40;99.90;;;;;;5073049;28;20778;-80
2023/03/12 08:46:04;;;;;;;3.20;0.77;;;6.50;99.90;;;;;;5072212;28;20492;-80
2023/03/12 08:48:32;;;;;;;3.53;1.47;;;6.50;99.90;;;;;;5072703;28;20469;-80
2023/03/12 08:51:02;;;;;;;3.27;0.90;;;6.30;99.90;;;;;;5072726;28;20449;-80
2023/03/12 08:53:30;;;;;;;0.60;0.60;;;6.30;99.90;;;;;;5072786;28;20484;-80
2023/03/12 08:55:57;;;;;;;1.07;0.60;;;6.20;99.90;;;;;;5072742;28;20452;-80
2023/03/12 08:58:25;;;;;;;3.53;1.10;;;6.20;99.90;;;;;;5072308;28;20476;-80
2023/03/12 09:00:52;;;;;;;0.87;0.57;;;6.00;99.90;;;;;;5076276;28;20449;-80
2023/03/12 09:03:21;;;;;;;0.60;0.60;;;6.00;99.90;;;;;;5076235;28;20441;-80
2023/03/12 09:05:48;;;;;;;3.10;0.77;;;6.00;99.90;;;;;;5076191;28;20489;-80
2023/03/12 09:08:16;;;;;;;0.77;0.70;;;6.10;99.90;;;;;;5076124;28;20462;-79
2023/03/12 09:10:48;;;;;;;0.90;0.80;;;6.30;99.90;;;;;;5076154;28;20449;-80
2023/03/12 09:13:15;;;;;;;0.63;0.60;;;6.40;99.90;;;;;;5075827;28;20445;-80
2023/03/12 09:15:42;;;;;;;0.90;0.53;;;6.40;99.90;;;;;;5075921;28;20453;-80
2023/03/12 09:18:09;;;;;;;2.37;2.27;;;6.80;99.90;;;;;;5075928;28;20568;-80
2023/03/12 09:20:37;;;;;;;0.40;0.40;;;7.20;99.90;;;;;;5075929;28;20450;-80
2023/03/12 09:23:04;;;;;;;2.83;0.50;;;7.30;99.90;;;;;;5075794;28;20449;-80
2023/03/12 09:25:30;;;;;;;0.50;0.50;;;7.40;99.90;;;;;;5075483;28;21022;-80
2023/03/12 09:27:58;;;;;;;1.07;0.83;;;7.40;99.90;;;;;;5075723;28;20473;-80
2023/03/12 09:30:25;;;;;;;0.40;0.40;;;7.40;99.90;;;;;;5075553;28;20780;-79
2023/03/12 09:32:53;;;;;;;0.60;0.60;;;7.40;99.90;;;;;;5075682;28;20456;-80
2023/03/12 09:35:20;;;;;;;0.43;0.43;;;7.40;99.90;;;;;;5075669;28;20449;-79
2023/03/12 09:37:50;;;;;;;1.53;0.87;;;7.30;99.90;;;;;;5075247;28;21004;-79
2023/03/12 09:40:19;;;;;;;0.70;0.47;;;7.20;99.90;;;;;;5075806;28;20457;-79
2023/03/12 09:42:49;;;;;;;0.40;0.40;;;6.90;99.90;;;;;;5075487;28;20449;-79
2023/03/12 09:45:20;;;;;;;0.40;0.40;;;6.80;99.90;;;;;;5075272;28;20496;-80
2023/03/12 09:47:49;;;;;;;0.80;0.53;;;6.80;99.90;;;;;;5075445;28;20488;-80
2023/03/12 09:50:22;;;;;;;0.73;0.73;;;6.80;99.90;;;;;;5075101;28;20440;-80
2023/03/12 09:52:56;;;;;;;0.33;0.30;;;6.90;99.90;;;;;;5075388;28;20837;-80
2023/03/12 09:55:24;;;;;;;0.90;0.90;;;7.30;99.90;;;;;;5075383;28;20426;-80
2023/03/12 09:57:52;;;;;;;1.23;0.60;;;7.60;99.90;;;;;;5075168;28;20496;-80
2023/03/12 10:00:21;;;;;;;0.50;0.40;;;7.80;99.90;;;;;;5074894;28;20457;-80
2023/03/12 10:03:30;;;;;;;0.40;0.40;;;7.90;99.90;;;;;;5075118;28;20446;-80
2023/03/12 10:06:09;;;;;;;0.40;0.40;;;7.90;99.90;;;;;;5075367;28;20810;-79
2023/03/12 10:08:50;;;;;;;0.50;0.50;;;7.90;99.90;;;;;;5075008;28;20472;-80
2023/03/12 10:11:28;;;;;;;0.73;0.73;;;8.30;99.90;;;;;;5075419;28;20434;-80
2023/03/12 10:14:15;;;;;;;0.73;0.60;;;8.40;99.90;;;;;;5075055;28;20803;-80
2023/03/12 10:16:54;;;;;;;0.37;0.37;;;8.70;99.90;;;;;;5074534;28;20928;-79
2023/03/12 10:19:33;;;;;;;0.40;0.40;;;8.80;99.90;;;;;;5074812;28;20472;-80
2023/03/12 10:22:07;;;;;;;1.20;0.60;;;8.70;99.90;;;;;;5074495;28;20437;-80
2023/03/12 10:24:44;;;;;;;0.77;0.43;;;8.70;99.90;;;;;;5074663;28;20519;-80
2023/03/12 10:27:14;;;;;;;0.93;0.50;;;8.70;99.90;;;;;;5074380;28;20430;-80
2023/03/12 10:29:43;;;;;;;0.40;0.30;;;8.80;99.90;;;;;;5074472;28;20466;-80
2023/03/12 10:32:15;;;;;;;0.70;0.50;;;8.90;99.90;;;;;;5074515;28;20456;-80
2023/03/12 10:34:46;;;;;;;0.50;0.40;;;9.10;99.90;;;;;;5074522;28;20440;-80
2023/03/12 10:37:18;;;;;;;0.67;0.50;;;9.30;99.90;;;;;;5074481;28;20444;-80
2023/03/12 10:39:47;;;;;;;0.40;0.30;;;9.40;99.90;;;;;;5074516;28;20790;-80
2023/03/12 10:42:16;;;;;;;0.73;0.50;;;9.60;99.90;;;;;;5074351;28;20453;-80
2023/03/12 10:44:43;;;;;;;0.57;0.57;;;9.80;99.90;;;;;;5074334;28;20442;-80
2023/03/12 10:47:25;;;;;;;0.50;0.50;;;9.90;99.90;;;;;;5074575;28;20526;-80
2023/03/12 10:49:52;;;;;;;0.67;0.30;;;10.20;99.90;;;;;;5074273;28;20410;-80
2023/03/12 10:52:20;;;;;;;0.40;0.40;;;10.40;99.90;;;;;;5074136;28;20895;-80
2023/03/12 10:54:50;;;;;;;0.30;0.30;;;10.60;99.90;;;;;;5073865;28;20452;-80
2023/03/12 10:57:17;;;;;;;0.53;0.53;;;10.70;99.90;;;;;;5074103;28;20460;-80
2023/03/12 10:59:46;;;;;;;0.30;0.30;;;10.70;99.90;;;;;;5074022;28;20823;-80
2023/03/12 11:02:30;;;;;;;0.50;0.30;;;10.80;99.90;;;;;;5073665;28;20791;-80
2023/03/12 11:04:58;;;;;;;0.40;0.30;;;11.10;99.90;;;;;;5073613;28;21115;-80
2023/03/12 11:07:28;;;;;;;0.40;0.30;;;11.40;99.90;;;;;;5073535;28;20824;-80
2023/03/12 11:10:22;;;;;;;0.30;0.30;;;11.70;99.90;;;;;;5073895;28;20480;-80
2023/03/12 11:12:58;;;;;;;0.40;0.30;;;11.70;99.90;;;;;;5059359;28;20462;-80
2023/03/12 11:15:27;;;;;;;0.30;0.20;;;11.80;99.90;;;;;;5073748;28;20430;-80
2023/03/12 11:18:19;;;;;;;0.60;0.40;;;11.80;99.90;;;;;;5073315;28;20462;-80
2023/03/12 11:20:46;;;;;;;0.30;0.30;;;11.80;99.90;;;;;;5073688;28;20437;-80
2023/03/12 11:23:15;;;;;;;0.40;0.30;;;11.70;99.90;;;;;;5072789;28;20433;-80
2023/03/12 11:25:43;;;;;;;0.37;0.27;;;11.70;99.90;;;;;;5073186;28;20474;-80
2023/03/12 11:28:20;;;;;;;0.40;0.30;;;11.70;99.90;;;;;;5073549;28;20473;-80
2023/03/12 11:30:49;;;;;;;0.70;0.37;;;11.80;99.90;;;;;;5073613;28;20448;-80
2023/03/12 11:33:17;;;;;;;0.30;0.30;;;11.80;99.90;;;;;;5073546;28;20445;-80
2023/03/12 11:35:51;;;;;;;0.40;0.40;;;11.70;99.90;;;;;;5073523;28;20454;-80
2023/03/12 11:38:21;;;;;;;0.40;0.30;;;11.60;99.90;;;;;;5074180;28;20481;-80
2023/03/12 11:41:12;;;;;;;0.40;0.37;;;11.50;99.90;;;;;;5073142;28;20955;-80
2023/03/12 11:43:51;;;;;;;0.30;0.30;;;11.50;99.90;;;;;;5073573;28;20833;-80
2023/03/12 11:46:26;;;;;;;0.30;0.30;;;11.70;99.90;;;;;;5072884;28;20860;-81
2023/03/12 11:49:03;;;;;;;0.30;0.30;;;11.70;99.90;;;;;;5073112;28;20450;-80
2023/03/12 11:51:41;;;;;;;0.30;0.30;;;11.90;99.90;;;;;;5073152;28;20913;-81
2023/03/12 11:54:41;;;;;;;0.30;0.30;;;12.10;99.90;;;;;;5073384;28;20444;-80
2023/03/12 11:57:16;;;;;;;0.30;0.20;;;12.40;99.90;;;;;;5073371;28;20418;-81
2023/03/12 11:59:59;;;;;;;0.40;0.30;;;12.70;99.90;;;;;;5073088;28;20413;-81
2023/03/12 12:02:46;;;;;;;0.40;0.30;;;12.70;99.90;;;;;;5073257;28;20438;-81
2023/03/12 12:05:31;;;;;;;2.50;0.60;;;12.90;99.90;;;;;;5072867;28;20441;-80
2023/03/12 12:08:15;;;;;;;0.93;0.57;;;13.00;99.90;;;;;;5073485;28;20798;-81
2023/03/12 12:10:50;;;;;;;1.33;1.23;;;13.00;99.90;;;;;;5073243;28;20784;-81
2023/03/12 12:13:25;;;;;;;0.30;0.20;;;12.90;99.90;;;;;;5073223;28;20433;-81
2023/03/12 12:16:04;;;;;;;0.40;0.30;;;12.90;99.90;;;;;;5073181;28;20422;-80
2023/03/12 12:18:47;;;;;;;0.43;0.33;;;13.00;99.90;;;;;;5072786;28;21011;-80
2023/03/12 12:21:33;;;;;;;0.70;0.40;;;13.10;99.90;;;;;;5073114;28;20436;-81
2023/03/12 12:24:11;;;;;;;0.50;0.30;;;13.00;99.90;;;;;;5073099;28;20429;-81
2023/03/12 12:26:44;;;;;;;3.17;0.47;;;12.90;99.90;;;;;;5073285;28;20465;-81
2023/03/12 12:29:32;;;;;;;0.30;0.30;;;12.90;99.90;;;;;;5072657;28;20976;-81
2023/03/12 12:32:01;;;;;;;0.40;0.30;;;12.80;99.90;;;;;;5073004;28;20438;-81
2023/03/12 12:35:05;;;;;;;0.47;0.40;;;12.60;99.90;;;;;;5074610;28;20448;-81
2023/03/12 12:37:43;;;;;;;0.57;0.57;;;12.50;99.90;;;;;;5014687;28;20448;-81
2023/03/12 12:40:21;;;;;;;0.40;0.30;;;12.40;99.90;;;;;;5070021;28;20948;-81
2023/03/12 12:43:01;;;;;;;1.77;0.40;;;12.40;99.90;;;;;;5076410;28;20425;-81
2023/03/12 12:45:29;;;;;;;0.80;0.80;;;12.30;99.90;;;;;;5076324;28;20497;-80
2023/03/12 12:47:59;;;;;;;1.00;0.40;;;12.40;99.90;;;;;;5076496;28;20480;-81
2023/03/12 12:50:31;;;;;;;1.80;0.60;;;12.50;99.90;;;;;;5081643;28;20421;-81
2023/03/12 12:53:03;;;;;;;0.50;0.50;;;12.40;99.90;;;;;;5079054;28;20793;-81
2023/03/12 12:55:33;;;;;;;1.13;0.30;;;12.30;99.90;;;;;;5076231;28;20925;-81
2023/03/12 12:58:07;;;;;;;0.60;0.50;;;12.20;99.90;;;;;;5076407;28;20469;-81
2023/03/12 13:00:44;;;;;;;0.30;0.30;;;12.30;99.90;;;;;;5076382;28;20429;-81
2023/03/12 13:03:16;;;;;;;3.43;0.40;;;12.40;99.90;;;;;;5076355;28;20442;-81
2023/03/12 13:05:49;;;;;;;0.30;0.30;;;12.50;99.90;;;;;;5076260;28;20523;-81
2023/03/12 13:08:55;;;;;;;0.40;0.30;;;12.60;99.90;;;;;;5075849;28;20474;-81